sensor_id;sensor_type;location;lat;lon;timestamp;P1;durP1;ratioP1;P2;durP2;ratioP2
80101;SDS011;69407;44.966;19.622;2023-05-09T00:01:25;8.00;;;1.98;;
80101;SDS011;69407;44.966;19.622;2023-05-09T00:03:53;5.10;;;1.92;;
80101;SDS011;69407;44.966;19.622;2023-05-09T00:06:19;4.88;;;1.92;;
80101;SDS011;69407;44.966;19.622;2023-05-09T00:08:45;3.30;;;1.77;;
80101;SDS011;69407;44.966;19.622;2023-05-09T00:11:11;5.47;;;2.08;;
80101;SDS011;69407;44.966;19.622;2023-05-09T00:13:36;4.30;;;1.88;;
80101;SDS011;69407;44.966;19.622;2023-05-09T00:16:02;4.05;;;1.83;;
80101;SDS011;69407;44.966;19.622;2023-05-09T00:18:30;6.60;;;1.80;;
80101;SDS011;69407;44.966;19.622;2023-05-09T00:20:55;3.33;;;1.80;;
80101;SDS011;69407;44.966;19.622;2023-05-09T00:23:21;3.30;;;1.75;;
80101;SDS011;69407;44.966;19.622;2023-05-09T00:25:47;5.03;;;2.05;;
80101;SDS011;69407;44.966;19.622;2023-05-09T00:28:12;7.55;;;2.42;;
80101;SDS011;69407;44.966;19.622;2023-05-09T00:30:38;4.82;;;2.22;;
80101;SDS011;69407;44.966;19.622;2023-05-09T00:33:03;10.48;;;3.25;;
80101;SDS011;69407;44.966;19.622;2023-05-09T00:35:30;4.60;;;1.98;;
80101;SDS011;69407;44.966;19.622;2023-05-09T00:37:56;4.80;;;1.50;;
80101;SDS011;69407;44.966;19.622;2023-05-09T00:40:21;5.20;;;2.00;;
80101;SDS011;69407;44.966;19.622;2023-05-09T00:42:47;4.40;;;1.92;;
80101;SDS011;69407;44.966;19.622;2023-05-09T00:45:12;3.63;;;1.98;;
80101;SDS011;69407;44.966;19.622;2023-05-09T00:47:38;10.85;;;2.47;;
80101;SDS011;69407;44.966;19.622;2023-05-09T00:50:04;3.03;;;1.90;;
80101;SDS011;69407;44.966;19.622;2023-05-09T00:52:30;4.65;;;2.25;;
80101;SDS011;69407;44.966;19.622;2023-05-09T00:54:57;4.45;;;1.90;;
80101;SDS011;69407;44.966;19.622;2023-05-09T00:57:24;4.32;;;1.88;;
80101;SDS011;69407;44.966;19.622;2023-05-09T00:59:49;6.55;;;2.13;;
80101;SDS011;69407;44.966;19.622;2023-05-09T01:02:15;6.45;;;1.95;;
80101;SDS011;69407;44.966;19.622;2023-05-09T01:04:41;4.72;;;2.13;;
80101;SDS011;69407;44.966;19.622;2023-05-09T01:07:10;5.15;;;1.73;;
80101;SDS011;69407;44.966;19.622;2023-05-09T01:10:01;7.43;;;2.00;;
80101;SDS011;69407;44.966;19.622;2023-05-09T01:18:01;4.68;;;2.42;;
80101;SDS011;69407;44.966;19.622;2023-05-09T01:26:04;5.80;;;3.05;;
80101;SDS011;69407;44.966;19.622;2023-05-09T01:30:56;5.80;;;2.45;;
80101;SDS011;69407;44.966;19.622;2023-05-09T01:33:21;5.07;;;1.95;;
80101;SDS011;69407;44.966;19.622;2023-05-09T01:35:50;6.78;;;2.50;;
80101;SDS011;69407;44.966;19.622;2023-05-09T01:38:22;6.90;;;2.40;;
80101;SDS011;69407;44.966;19.622;2023-05-09T01:40:50;9.63;;;3.05;;
80101;SDS011;69407;44.966;19.622;2023-05-09T01:43:19;6.47;;;2.42;;
80101;SDS011;69407;44.966;19.622;2023-05-09T01:48:13;6.43;;;2.42;;
80101;SDS011;69407;44.966;19.622;2023-05-09T01:50:40;5.70;;;2.33;;
80101;SDS011;69407;44.966;19.622;2023-05-09T01:53:07;6.43;;;2.47;;
80101;SDS011;69407;44.966;19.622;2023-05-09T01:55:35;7.63;;;3.05;;
80101;SDS011;69407;44.966;19.622;2023-05-09T01:58:02;8.75;;;2.65;;
80101;SDS011;69407;44.966;19.622;2023-05-09T02:00:30;9.90;;;2.90;;
80101;SDS011;69407;44.966;19.622;2023-05-09T02:02:57;6.95;;;2.72;;
80101;SDS011;69407;44.966;19.622;2023-05-09T02:05:25;5.80;;;2.38;;
80101;SDS011;69407;44.966;19.622;2023-05-09T02:07:52;5.40;;;2.25;;
80101;SDS011;69407;44.966;19.622;2023-05-09T02:10:21;7.82;;;2.85;;
80101;SDS011;69407;44.966;19.622;2023-05-09T02:12:49;4.70;;;2.30;;
80101;SDS011;69407;44.966;19.622;2023-05-09T02:15:15;9.27;;;2.65;;
80101;SDS011;69407;44.966;19.622;2023-05-09T02:17:41;5.78;;;2.40;;
80101;SDS011;69407;44.966;19.622;2023-05-09T02:20:07;7.72;;;2.60;;
80101;SDS011;69407;44.966;19.622;2023-05-09T02:22:36;8.38;;;2.90;;
80101;SDS011;69407;44.966;19.622;2023-05-09T02:27:33;10.98;;;3.60;;
80101;SDS011;69407;44.966;19.622;2023-05-09T02:30:00;14.27;;;4.88;;
80101;SDS011;69407;44.966;19.622;2023-05-09T02:32:31;6.95;;;3.00;;
80101;SDS011;69407;44.966;19.622;2023-05-09T02:35:00;7.18;;;3.08;;
80101;SDS011;69407;44.966;19.622;2023-05-09T02:37:27;7.22;;;3.33;;
80101;SDS011;69407;44.966;19.622;2023-05-09T02:39:53;5.18;;;2.72;;
80101;SDS011;69407;44.966;19.622;2023-05-09T02:42:21;19.55;;;3.67;;
80101;SDS011;69407;44.966;19.622;2023-05-09T02:44:49;8.13;;;2.83;;
80101;SDS011;69407;44.966;19.622;2023-05-09T02:47:15;5.32;;;3.00;;
80101;SDS011;69407;44.966;19.622;2023-05-09T02:49:40;7.95;;;3.30;;
80101;SDS011;69407;44.966;19.622;2023-05-09T02:52:06;5.80;;;3.17;;
80101;SDS011;69407;44.966;19.622;2023-05-09T02:54:31;10.98;;;3.17;;
80101;SDS011;69407;44.966;19.622;2023-05-09T02:56:57;9.88;;;3.33;;
80101;SDS011;69407;44.966;19.622;2023-05-09T02:59:23;5.75;;;2.72;;
80101;SDS011;69407;44.966;19.622;2023-05-09T03:01:49;7.35;;;3.30;;
80101;SDS011;69407;44.966;19.622;2023-05-09T03:04:15;8.80;;;3.40;;
80101;SDS011;69407;44.966;19.622;2023-05-09T03:06:41;5.13;;;3.15;;
80101;SDS011;69407;44.966;19.622;2023-05-09T03:09:07;6.60;;;3.13;;
80101;SDS011;69407;44.966;19.622;2023-05-09T03:11:33;5.43;;;3.20;;
80101;SDS011;69407;44.966;19.622;2023-05-09T03:14:00;7.68;;;3.03;;
80101;SDS011;69407;44.966;19.622;2023-05-09T03:16:26;8.38;;;4.13;;
80101;SDS011;69407;44.966;19.622;2023-05-09T03:18:52;6.50;;;3.40;;
80101;SDS011;69407;44.966;19.622;2023-05-09T03:21:17;7.55;;;3.55;;
80101;SDS011;69407;44.966;19.622;2023-05-09T03:23:43;7.00;;;3.45;;
80101;SDS011;69407;44.966;19.622;2023-05-09T03:26:08;6.65;;;3.75;;
80101;SDS011;69407;44.966;19.622;2023-05-09T03:28:34;5.65;;;3.60;;
80101;SDS011;69407;44.966;19.622;2023-05-09T03:30:59;5.28;;;3.03;;
80101;SDS011;69407;44.966;19.622;2023-05-09T03:33:25;6.63;;;3.25;;
80101;SDS011;69407;44.966;19.622;2023-05-09T03:35:51;8.00;;;3.22;;
80101;SDS011;69407;44.966;19.622;2023-05-09T03:38:16;6.10;;;3.55;;
80101;SDS011;69407;44.966;19.622;2023-05-09T03:40:42;6.60;;;3.20;;
80101;SDS011;69407;44.966;19.622;2023-05-09T03:43:07;4.20;;;2.75;;
80101;SDS011;69407;44.966;19.622;2023-05-09T03:45:32;7.07;;;3.58;;
80101;SDS011;69407;44.966;19.622;2023-05-09T03:48:00;5.88;;;2.97;;
80101;SDS011;69407;44.966;19.622;2023-05-09T03:50:27;8.18;;;3.33;;
80101;SDS011;69407;44.966;19.622;2023-05-09T03:52:53;6.28;;;3.25;;
80101;SDS011;69407;44.966;19.622;2023-05-09T03:55:20;8.13;;;2.95;;
80101;SDS011;69407;44.966;19.622;2023-05-09T03:57:47;6.95;;;3.75;;
80101;SDS011;69407;44.966;19.622;2023-05-09T04:00:13;6.63;;;3.30;;
80101;SDS011;69407;44.966;19.622;2023-05-09T04:02:39;7.57;;;3.08;;
80101;SDS011;69407;44.966;19.622;2023-05-09T04:05:06;7.72;;;3.15;;
80101;SDS011;69407;44.966;19.622;2023-05-09T04:07:31;6.85;;;3.08;;
80101;SDS011;69407;44.966;19.622;2023-05-09T04:09:57;6.45;;;3.05;;
80101;SDS011;69407;44.966;19.622;2023-05-09T04:12:23;8.48;;;3.58;;
80101;SDS011;69407;44.966;19.622;2023-05-09T04:14:48;11.98;;;3.72;;
80101;SDS011;69407;44.966;19.622;2023-05-09T04:17:15;7.43;;;3.95;;
80101;SDS011;69407;44.966;19.622;2023-05-09T04:19:41;8.90;;;3.53;;
80101;SDS011;69407;44.966;19.622;2023-05-09T04:22:06;8.93;;;4.13;;
80101;SDS011;69407;44.966;19.622;2023-05-09T04:24:32;9.43;;;3.33;;
80101;SDS011;69407;44.966;19.622;2023-05-09T04:26:58;9.20;;;4.85;;
80101;SDS011;69407;44.966;19.622;2023-05-09T04:29:23;10.93;;;3.65;;
80101;SDS011;69407;44.966;19.622;2023-05-09T04:31:50;6.68;;;3.13;;
80101;SDS011;69407;44.966;19.622;2023-05-09T04:34:15;8.38;;;3.53;;
80101;SDS011;69407;44.966;19.622;2023-05-09T04:36:41;9.57;;;4.00;;
80101;SDS011;69407;44.966;19.622;2023-05-09T04:39:06;6.70;;;3.40;;
80101;SDS011;69407;44.966;19.622;2023-05-09T04:41:32;6.88;;;3.88;;
80101;SDS011;69407;44.966;19.622;2023-05-09T04:43:58;9.02;;;4.25;;
80101;SDS011;69407;44.966;19.622;2023-05-09T04:46:23;8.98;;;4.07;;
80101;SDS011;69407;44.966;19.622;2023-05-09T04:48:49;10.60;;;4.93;;
80101;SDS011;69407;44.966;19.622;2023-05-09T04:51:14;11.82;;;5.60;;
80101;SDS011;69407;44.966;19.622;2023-05-09T04:53:40;14.65;;;5.88;;
80101;SDS011;69407;44.966;19.622;2023-05-09T04:56:05;14.75;;;6.03;;
80101;SDS011;69407;44.966;19.622;2023-05-09T04:58:31;15.38;;;5.53;;
80101;SDS011;69407;44.966;19.622;2023-05-09T05:00:58;6.55;;;4.10;;
80101;SDS011;69407;44.966;19.622;2023-05-09T05:03:23;9.23;;;5.22;;
80101;SDS011;69407;44.966;19.622;2023-05-09T05:05:49;11.40;;;5.10;;
80101;SDS011;69407;44.966;19.622;2023-05-09T05:08:15;9.95;;;4.05;;
80101;SDS011;69407;44.966;19.622;2023-05-09T05:10:40;7.80;;;3.10;;
80101;SDS011;69407;44.966;19.622;2023-05-09T05:13:05;9.65;;;3.47;;
80101;SDS011;69407;44.966;19.622;2023-05-09T05:15:31;8.60;;;2.65;;
80101;SDS011;69407;44.966;19.622;2023-05-09T05:17:56;6.72;;;3.40;;
80101;SDS011;69407;44.966;19.622;2023-05-09T05:20:22;4.40;;;2.45;;
80101;SDS011;69407;44.966;19.622;2023-05-09T05:22:47;5.18;;;2.80;;
80101;SDS011;69407;44.966;19.622;2023-05-09T05:25:13;8.80;;;2.90;;
80101;SDS011;69407;44.966;19.622;2023-05-09T05:27:38;6.05;;;2.63;;
80101;SDS011;69407;44.966;19.622;2023-05-09T05:30:04;6.85;;;2.50;;
80101;SDS011;69407;44.966;19.622;2023-05-09T05:32:30;4.30;;;2.40;;
80101;SDS011;69407;44.966;19.622;2023-05-09T05:34:55;6.47;;;2.40;;
80101;SDS011;69407;44.966;19.622;2023-05-09T05:37:21;5.82;;;2.40;;
80101;SDS011;69407;44.966;19.622;2023-05-09T05:39:47;5.35;;;2.30;;
80101;SDS011;69407;44.966;19.622;2023-05-09T05:42:13;8.10;;;3.22;;
80101;SDS011;69407;44.966;19.622;2023-05-09T05:44:38;4.70;;;2.88;;
80101;SDS011;69407;44.966;19.622;2023-05-09T05:47:04;5.10;;;2.55;;
80101;SDS011;69407;44.966;19.622;2023-05-09T05:49:29;5.15;;;2.53;;
80101;SDS011;69407;44.966;19.622;2023-05-09T05:51:54;5.70;;;2.35;;
80101;SDS011;69407;44.966;19.622;2023-05-09T05:54:20;4.30;;;2.05;;
80101;SDS011;69407;44.966;19.622;2023-05-09T05:56:45;4.80;;;2.70;;
80101;SDS011;69407;44.966;19.622;2023-05-09T05:59:11;5.07;;;2.35;;
80101;SDS011;69407;44.966;19.622;2023-05-09T06:01:36;4.47;;;2.60;;
80101;SDS011;69407;44.966;19.622;2023-05-09T06:04:02;4.95;;;2.47;;
80101;SDS011;69407;44.966;19.622;2023-05-09T06:06:27;5.03;;;2.85;;
80101;SDS011;69407;44.966;19.622;2023-05-09T06:08:53;6.40;;;2.83;;
80101;SDS011;69407;44.966;19.622;2023-05-09T06:11:19;4.93;;;2.63;;
80101;SDS011;69407;44.966;19.622;2023-05-09T06:13:45;5.20;;;2.17;;
80101;SDS011;69407;44.966;19.622;2023-05-09T06:16:10;4.80;;;2.22;;
80101;SDS011;69407;44.966;19.622;2023-05-09T06:18:36;4.55;;;2.60;;
80101;SDS011;69407;44.966;19.622;2023-05-09T06:21:04;10.15;;;4.95;;
80101;SDS011;69407;44.966;19.622;2023-05-09T06:23:30;6.57;;;3.38;;
80101;SDS011;69407;44.966;19.622;2023-05-09T06:25:55;7.13;;;3.60;;
80101;SDS011;69407;44.966;19.622;2023-05-09T06:28:21;62.10;;;26.00;;
80101;SDS011;69407;44.966;19.622;2023-05-09T06:30:46;43.88;;;22.63;;
80101;SDS011;69407;44.966;19.622;2023-05-09T06:33:12;6.22;;;4.32;;
80101;SDS011;69407;44.966;19.622;2023-05-09T06:35:37;6.13;;;3.03;;
80101;SDS011;69407;44.966;19.622;2023-05-09T06:38:03;4.32;;;2.45;;
80101;SDS011;69407;44.966;19.622;2023-05-09T06:40:28;9.02;;;3.15;;
80101;SDS011;69407;44.966;19.622;2023-05-09T06:42:54;5.20;;;3.17;;
80101;SDS011;69407;44.966;19.622;2023-05-09T06:45:20;3.85;;;1.98;;
80101;SDS011;69407;44.966;19.622;2023-05-09T06:47:45;5.50;;;2.53;;
80101;SDS011;69407;44.966;19.622;2023-05-09T06:50:10;6.78;;;2.90;;
80101;SDS011;69407;44.966;19.622;2023-05-09T06:52:36;6.68;;;2.70;;
80101;SDS011;69407;44.966;19.622;2023-05-09T06:55:02;6.85;;;2.83;;
80101;SDS011;69407;44.966;19.622;2023-05-09T06:57:28;7.97;;;2.92;;
80101;SDS011;69407;44.966;19.622;2023-05-09T06:59:54;5.10;;;3.22;;
80101;SDS011;69407;44.966;19.622;2023-05-09T07:02:19;4.75;;;2.60;;
80101;SDS011;69407;44.966;19.622;2023-05-09T07:04:45;6.72;;;3.25;;
80101;SDS011;69407;44.966;19.622;2023-05-09T07:07:10;6.43;;;2.70;;
80101;SDS011;69407;44.966;19.622;2023-05-09T07:09:35;4.15;;;2.35;;
80101;SDS011;69407;44.966;19.622;2023-05-09T07:12:01;4.28;;;2.33;;
80101;SDS011;69407;44.966;19.622;2023-05-09T07:14:27;5.28;;;2.90;;
80101;SDS011;69407;44.966;19.622;2023-05-09T07:16:52;6.95;;;3.45;;
80101;SDS011;69407;44.966;19.622;2023-05-09T07:19:18;5.70;;;2.85;;
80101;SDS011;69407;44.966;19.622;2023-05-09T07:21:43;5.38;;;2.33;;
80101;SDS011;69407;44.966;19.622;2023-05-09T07:24:09;6.68;;;2.55;;
80101;SDS011;69407;44.966;19.622;2023-05-09T07:26:34;6.75;;;3.42;;
80101;SDS011;69407;44.966;19.622;2023-05-09T07:29:00;7.75;;;2.33;;
80101;SDS011;69407;44.966;19.622;2023-05-09T07:31:26;4.82;;;3.05;;
80101;SDS011;69407;44.966;19.622;2023-05-09T07:33:52;5.00;;;3.22;;
80101;SDS011;69407;44.966;19.622;2023-05-09T07:36:18;9.48;;;3.70;;
80101;SDS011;69407;44.966;19.622;2023-05-09T07:38:43;5.32;;;2.97;;
80101;SDS011;69407;44.966;19.622;2023-05-09T07:43:37;5.32;;;2.90;;
80101;SDS011;69407;44.966;19.622;2023-05-09T07:46:02;7.22;;;2.53;;
80101;SDS011;69407;44.966;19.622;2023-05-09T07:48:28;5.30;;;3.25;;
80101;SDS011;69407;44.966;19.622;2023-05-09T07:50:53;6.78;;;2.67;;
80101;SDS011;69407;44.966;19.622;2023-05-09T07:53:19;5.60;;;3.08;;
80101;SDS011;69407;44.966;19.622;2023-05-09T07:55:44;7.85;;;3.55;;
80101;SDS011;69407;44.966;19.622;2023-05-09T07:58:12;6.15;;;3.53;;
80101;SDS011;69407;44.966;19.622;2023-05-09T08:00:37;6.47;;;4.20;;
80101;SDS011;69407;44.966;19.622;2023-05-09T08:03:03;7.25;;;4.68;;
80101;SDS011;69407;44.966;19.622;2023-05-09T08:05:28;6.10;;;3.70;;
80101;SDS011;69407;44.966;19.622;2023-05-09T08:07:54;6.90;;;4.00;;
80101;SDS011;69407;44.966;19.622;2023-05-09T08:10:20;6.97;;;3.58;;
80101;SDS011;69407;44.966;19.622;2023-05-09T08:12:47;6.00;;;3.80;;
80101;SDS011;69407;44.966;19.622;2023-05-09T08:15:12;7.25;;;3.85;;
80101;SDS011;69407;44.966;19.622;2023-05-09T08:17:38;5.97;;;4.15;;
80101;SDS011;69407;44.966;19.622;2023-05-09T08:20:04;10.35;;;4.75;;
80101;SDS011;69407;44.966;19.622;2023-05-09T08:22:31;7.10;;;4.05;;
80101;SDS011;69407;44.966;19.622;2023-05-09T08:24:56;7.80;;;3.65;;
80101;SDS011;69407;44.966;19.622;2023-05-09T08:27:22;8.70;;;4.28;;
80101;SDS011;69407;44.966;19.622;2023-05-09T08:29:47;7.03;;;3.67;;
80101;SDS011;69407;44.966;19.622;2023-05-09T08:32:13;6.72;;;3.67;;
80101;SDS011;69407;44.966;19.622;2023-05-09T08:34:39;7.88;;;4.35;;
80101;SDS011;69407;44.966;19.622;2023-05-09T08:37:04;7.38;;;4.25;;
80101;SDS011;69407;44.966;19.622;2023-05-09T08:39:30;6.90;;;3.45;;
80101;SDS011;69407;44.966;19.622;2023-05-09T08:41:58;7.20;;;3.28;;
80101;SDS011;69407;44.966;19.622;2023-05-09T08:44:25;6.55;;;4.07;;
80101;SDS011;69407;44.966;19.622;2023-05-09T08:46:57;6.13;;;3.90;;
80101;SDS011;69407;44.966;19.622;2023-05-09T08:49:25;8.48;;;4.47;;
80101;SDS011;69407;44.966;19.622;2023-05-09T08:51:50;6.28;;;3.88;;
80101;SDS011;69407;44.966;19.622;2023-05-09T08:54:17;7.32;;;3.70;;
80101;SDS011;69407;44.966;19.622;2023-05-09T08:56:43;7.50;;;3.83;;
80101;SDS011;69407;44.966;19.622;2023-05-09T08:59:09;8.50;;;3.42;;
80101;SDS011;69407;44.966;19.622;2023-05-09T09:01:34;10.15;;;4.35;;
80101;SDS011;69407;44.966;19.622;2023-05-09T09:04:04;7.00;;;4.57;;
80101;SDS011;69407;44.966;19.622;2023-05-09T09:06:32;6.53;;;3.78;;
80101;SDS011;69407;44.966;19.622;2023-05-09T09:08:58;6.43;;;3.88;;
80101;SDS011;69407;44.966;19.622;2023-05-09T09:11:25;5.95;;;3.63;;
80101;SDS011;69407;44.966;19.622;2023-05-09T09:13:52;7.43;;;3.03;;
80101;SDS011;69407;44.966;19.622;2023-05-09T09:16:22;7.05;;;3.63;;
80101;SDS011;69407;44.966;19.622;2023-05-09T09:18:52;6.82;;;3.72;;
80101;SDS011;69407;44.966;19.622;2023-05-09T09:21:20;6.47;;;3.55;;
80101;SDS011;69407;44.966;19.622;2023-05-09T09:23:46;6.15;;;3.47;;
80101;SDS011;69407;44.966;19.622;2023-05-09T09:26:13;8.35;;;3.33;;
80101;SDS011;69407;44.966;19.622;2023-05-09T09:28:39;8.48;;;4.00;;
80101;SDS011;69407;44.966;19.622;2023-05-09T09:31:21;8.25;;;3.70;;
80101;SDS011;69407;44.966;19.622;2023-05-09T09:33:57;7.07;;;3.55;;
80101;SDS011;69407;44.966;19.622;2023-05-09T09:36:31;7.65;;;3.85;;
80101;SDS011;69407;44.966;19.622;2023-05-09T09:39:00;8.20;;;3.55;;
80101;SDS011;69407;44.966;19.622;2023-05-09T09:44:13;8.10;;;3.47;;
80101;SDS011;69407;44.966;19.622;2023-05-09T09:46:44;6.63;;;3.22;;
80101;SDS011;69407;44.966;19.622;2023-05-09T09:49:10;9.20;;;3.20;;
80101;SDS011;69407;44.966;19.622;2023-05-09T09:51:39;8.55;;;4.10;;
80101;SDS011;69407;44.966;19.622;2023-05-09T09:54:09;7.22;;;3.40;;
80101;SDS011;69407;44.966;19.622;2023-05-09T09:56:40;7.75;;;3.50;;
80101;SDS011;69407;44.966;19.622;2023-05-09T09:59:10;8.75;;;3.53;;
80101;SDS011;69407;44.966;19.622;2023-05-09T10:04:22;5.03;;;3.00;;
80101;SDS011;69407;44.966;19.622;2023-05-09T10:06:58;8.55;;;3.85;;
80101;SDS011;69407;44.966;19.622;2023-05-09T10:09:28;5.30;;;2.90;;
80101;SDS011;69407;44.966;19.622;2023-05-09T10:11:54;6.47;;;3.10;;
80101;SDS011;69407;44.966;19.622;2023-05-09T10:14:25;6.10;;;3.22;;
80101;SDS011;69407;44.966;19.622;2023-05-09T10:16:51;14.55;;;3.40;;
80101;SDS011;69407;44.966;19.622;2023-05-09T10:19:19;11.77;;;3.15;;
80101;SDS011;69407;44.966;19.622;2023-05-09T10:21:48;6.72;;;3.50;;
80101;SDS011;69407;44.966;19.622;2023-05-09T10:27:26;7.00;;;2.70;;
80101;SDS011;69407;44.966;19.622;2023-05-09T10:30:07;5.35;;;2.40;;
80101;SDS011;69407;44.966;19.622;2023-05-09T10:35:19;5.85;;;2.70;;
80101;SDS011;69407;44.966;19.622;2023-05-09T10:37:50;5.75;;;2.78;;
80101;SDS011;69407;44.966;19.622;2023-05-09T10:40:20;6.47;;;2.10;;
80101;SDS011;69407;44.966;19.622;2023-05-09T10:42:46;7.68;;;2.35;;
80101;SDS011;69407;44.966;19.622;2023-05-09T10:45:12;5.95;;;2.80;;
80101;SDS011;69407;44.966;19.622;2023-05-09T10:47:38;6.78;;;2.67;;
80101;SDS011;69407;44.966;19.622;2023-05-09T10:50:09;4.30;;;2.45;;
80101;SDS011;69407;44.966;19.622;2023-05-09T11:00:48;3.72;;;1.55;;
80101;SDS011;69407;44.966;19.622;2023-05-09T11:03:14;3.33;;;1.92;;
80101;SDS011;69407;44.966;19.622;2023-05-09T11:05:43;6.72;;;1.75;;
80101;SDS011;69407;44.966;19.622;2023-05-09T11:08:29;9.45;;;2.80;;
80101;SDS011;69407;44.966;19.622;2023-05-09T11:11:04;3.75;;;2.00;;
80101;SDS011;69407;44.966;19.622;2023-05-09T11:13:31;8.63;;;2.05;;
80101;SDS011;69407;44.966;19.622;2023-05-09T11:18:26;6.13;;;2.03;;
80101;SDS011;69407;44.966;19.622;2023-05-09T11:20:52;3.25;;;1.85;;
80101;SDS011;69407;44.966;19.622;2023-05-09T11:23:19;3.55;;;1.85;;
80101;SDS011;69407;44.966;19.622;2023-05-09T11:25:47;3.67;;;1.92;;
80101;SDS011;69407;44.966;19.622;2023-05-09T11:28:29;4.93;;;2.25;;
80101;SDS011;69407;44.966;19.622;2023-05-09T11:33:36;3.03;;;1.27;;
80101;SDS011;69407;44.966;19.622;2023-05-09T11:38:44;4.00;;;1.63;;
80101;SDS011;69407;44.966;19.622;2023-05-09T11:41:10;2.22;;;1.27;;
80101;SDS011;69407;44.966;19.622;2023-05-09T11:43:36;5.45;;;1.40;;
80101;SDS011;69407;44.966;19.622;2023-05-09T11:46:03;3.83;;;1.73;;
80101;SDS011;69407;44.966;19.622;2023-05-09T11:48:29;3.90;;;1.30;;
80101;SDS011;69407;44.966;19.622;2023-05-09T11:50:54;4.60;;;1.20;;
80101;SDS011;69407;44.966;19.622;2023-05-09T11:53:20;4.38;;;1.45;;
80101;SDS011;69407;44.966;19.622;2023-05-09T11:55:45;5.15;;;1.33;;
80101;SDS011;69407;44.966;19.622;2023-05-09T11:58:11;2.15;;;1.45;;
80101;SDS011;69407;44.966;19.622;2023-05-09T12:00:42;4.15;;;1.60;;
80101;SDS011;69407;44.966;19.622;2023-05-09T12:03:09;2.53;;;1.27;;
80101;SDS011;69407;44.966;19.622;2023-05-09T12:05:36;3.58;;;1.95;;
80101;SDS011;69407;44.966;19.622;2023-05-09T12:08:04;3.40;;;1.80;;
80101;SDS011;69407;44.966;19.622;2023-05-09T12:10:30;4.25;;;1.77;;
80101;SDS011;69407;44.966;19.622;2023-05-09T12:12:57;3.03;;;1.45;;
80101;SDS011;69407;44.966;19.622;2023-05-09T12:15:22;14.18;;;1.67;;
80101;SDS011;69407;44.966;19.622;2023-05-09T12:18:04;2.78;;;1.63;;
80101;SDS011;69407;44.966;19.622;2023-05-09T12:20:47;5.78;;;1.52;;
80101;SDS011;69407;44.966;19.622;2023-05-09T12:23:17;2.88;;;1.25;;
80101;SDS011;69407;44.966;19.622;2023-05-09T12:26:01;2.20;;;1.40;;
80101;SDS011;69407;44.966;19.622;2023-05-09T12:28:26;4.57;;;1.40;;
80101;SDS011;69407;44.966;19.622;2023-05-09T12:30:52;2.33;;;1.30;;
80101;SDS011;69407;44.966;19.622;2023-05-09T12:33:19;3.13;;;1.20;;
80101;SDS011;69407;44.966;19.622;2023-05-09T12:35:45;2.70;;;1.10;;
80101;SDS011;69407;44.966;19.622;2023-05-09T12:38:19;3.08;;;1.40;;
80101;SDS011;69407;44.966;19.622;2023-05-09T12:40:47;4.10;;;1.27;;
80101;SDS011;69407;44.966;19.622;2023-05-09T12:43:13;2.83;;;1.23;;
80101;SDS011;69407;44.966;19.622;2023-05-09T12:45:38;2.00;;;1.20;;
80101;SDS011;69407;44.966;19.622;2023-05-09T12:48:06;4.45;;;1.35;;
80101;SDS011;69407;44.966;19.622;2023-05-09T12:50:33;4.25;;;1.20;;
80101;SDS011;69407;44.966;19.622;2023-05-09T12:53:00;4.03;;;1.73;;
80101;SDS011;69407;44.966;19.622;2023-05-09T12:55:26;3.40;;;1.30;;
80101;SDS011;69407;44.966;19.622;2023-05-09T12:57:58;2.88;;;1.00;;
80101;SDS011;69407;44.966;19.622;2023-05-09T13:02:51;2.45;;;1.20;;
80101;SDS011;69407;44.966;19.622;2023-05-09T13:05:18;3.63;;;1.48;;
80101;SDS011;69407;44.966;19.622;2023-05-09T13:07:46;3.10;;;1.30;;
80101;SDS011;69407;44.966;19.622;2023-05-09T13:10:16;3.92;;;1.40;;
80101;SDS011;69407;44.966;19.622;2023-05-09T13:12:45;4.10;;;1.90;;
80101;SDS011;69407;44.966;19.622;2023-05-09T13:17:41;5.68;;;2.08;;
80101;SDS011;69407;44.966;19.622;2023-05-09T13:20:07;5.38;;;2.22;;
80101;SDS011;69407;44.966;19.622;2023-05-09T13:22:33;5.03;;;2.65;;
80101;SDS011;69407;44.966;19.622;2023-05-09T13:24:58;4.38;;;2.00;;
80101;SDS011;69407;44.966;19.622;2023-05-09T13:27:24;4.63;;;2.38;;
80101;SDS011;69407;44.966;19.622;2023-05-09T13:29:51;4.40;;;2.47;;
80101;SDS011;69407;44.966;19.622;2023-05-09T13:32:17;4.82;;;2.40;;
80101;SDS011;69407;44.966;19.622;2023-05-09T13:34:43;6.72;;;2.80;;
80101;SDS011;69407;44.966;19.622;2023-05-09T13:37:08;4.53;;;2.80;;
80101;SDS011;69407;44.966;19.622;2023-05-09T13:39:33;8.45;;;2.63;;
80101;SDS011;69407;44.966;19.622;2023-05-09T13:41:59;7.10;;;2.90;;
80101;SDS011;69407;44.966;19.622;2023-05-09T13:44:25;4.78;;;3.08;;
80101;SDS011;69407;44.966;19.622;2023-05-09T13:46:50;6.43;;;2.90;;
80101;SDS011;69407;44.966;19.622;2023-05-09T13:49:16;4.97;;;2.60;;
80101;SDS011;69407;44.966;19.622;2023-05-09T13:51:41;6.15;;;2.72;;
80101;SDS011;69407;44.966;19.622;2023-05-09T13:54:07;7.75;;;3.00;;
80101;SDS011;69407;44.966;19.622;2023-05-09T13:56:39;8.18;;;2.80;;
80101;SDS011;69407;44.966;19.622;2023-05-09T13:59:07;3.65;;;2.15;;
80101;SDS011;69407;44.966;19.622;2023-05-09T14:01:33;7.55;;;2.65;;
80101;SDS011;69407;44.966;19.622;2023-05-09T14:03:59;3.65;;;1.92;;
80101;SDS011;69407;44.966;19.622;2023-05-09T14:06:25;2.78;;;2.10;;
80101;SDS011;69407;44.966;19.622;2023-05-09T14:08:51;4.50;;;2.38;;
80101;SDS011;69407;44.966;19.622;2023-05-09T14:11:16;11.10;;;2.80;;
80101;SDS011;69407;44.966;19.622;2023-05-09T14:13:42;4.95;;;1.90;;
80101;SDS011;69407;44.966;19.622;2023-05-09T14:16:07;4.65;;;2.13;;
80101;SDS011;69407;44.966;19.622;2023-05-09T14:18:33;4.43;;;1.90;;
80101;SDS011;69407;44.966;19.622;2023-05-09T14:20:59;3.20;;;1.90;;
80101;SDS011;69407;44.966;19.622;2023-05-09T14:23:25;3.42;;;2.20;;
80101;SDS011;69407;44.966;19.622;2023-05-09T14:25:51;4.40;;;2.20;;
80101;SDS011;69407;44.966;19.622;2023-05-09T14:28:16;4.30;;;2.60;;
80101;SDS011;69407;44.966;19.622;2023-05-09T14:30:41;6.85;;;2.90;;
80101;SDS011;69407;44.966;19.622;2023-05-09T14:33:07;7.95;;;3.20;;
80101;SDS011;69407;44.966;19.622;2023-05-09T14:35:33;7.38;;;2.80;;
80101;SDS011;69407;44.966;19.622;2023-05-09T14:37:59;7.13;;;3.83;;
80101;SDS011;69407;44.966;19.622;2023-05-09T14:40:25;4.75;;;3.22;;
80101;SDS011;69407;44.966;19.622;2023-05-09T14:42:55;7.40;;;4.93;;
80101;SDS011;69407;44.966;19.622;2023-05-09T14:45:26;7.10;;;3.90;;
80101;SDS011;69407;44.966;19.622;2023-05-09T14:47:53;6.53;;;3.50;;
80101;SDS011;69407;44.966;19.622;2023-05-09T14:50:19;5.78;;;3.08;;
80101;SDS011;69407;44.966;19.622;2023-05-09T14:52:45;6.68;;;3.45;;
80101;SDS011;69407;44.966;19.622;2023-05-09T14:55:11;5.20;;;3.22;;
80101;SDS011;69407;44.966;19.622;2023-05-09T14:57:37;5.50;;;3.35;;
80101;SDS011;69407;44.966;19.622;2023-05-09T15:00:03;8.00;;;3.40;;
80101;SDS011;69407;44.966;19.622;2023-05-09T15:02:29;7.15;;;3.78;;
80101;SDS011;69407;44.966;19.622;2023-05-09T15:04:54;8.80;;;3.50;;
80101;SDS011;69407;44.966;19.622;2023-05-09T15:07:20;8.40;;;2.78;;
80101;SDS011;69407;44.966;19.622;2023-05-09T15:09:45;6.40;;;1.90;;
80101;SDS011;69407;44.966;19.622;2023-05-09T15:12:11;3.05;;;1.88;;
80101;SDS011;69407;44.966;19.622;2023-05-09T15:14:36;4.93;;;2.08;;
80101;SDS011;69407;44.966;19.622;2023-05-09T15:17:03;5.65;;;2.22;;
80101;SDS011;69407;44.966;19.622;2023-05-09T15:19:29;7.43;;;2.42;;
80101;SDS011;69407;44.966;19.622;2023-05-09T15:21:56;8.13;;;2.75;;
80101;SDS011;69407;44.966;19.622;2023-05-09T15:24:22;5.85;;;2.45;;